createdAt,value
2016-12-30T00:00:23.531Z,1020.52
2016-12-30T00:01:23.560Z,1020.57
2016-12-30T00:02:23.552Z,1020.56
2016-12-30T00:03:23.565Z,1020.57
2016-12-30T00:04:23.575Z,1020.56
2016-12-30T00:05:23.588Z,1020.52
2016-12-30T00:06:23.599Z,1020.56
2016-12-30T00:07:23.613Z,1020.51
2016-12-30T00:08:23.621Z,1020.49
2016-12-30T00:09:23.632Z,1020.5
2016-12-30T00:10:23.642Z,1020.5
2016-12-30T00:11:23.655Z,1020.5
2016-12-30T00:12:23.667Z,1020.44
2016-12-30T00:13:23.676Z,1020.42
2016-12-30T00:14:23.689Z,1020.45
2016-12-30T00:15:23.701Z,1020.44
2016-12-30T00:16:23.712Z,1020.42
2016-12-30T00:17:23.725Z,1020.42
2016-12-30T00:18:23.737Z,1020.42
2016-12-30T00:19:23.749Z,1020.4
2016-12-30T00:20:23.759Z,1020.38
2016-12-30T00:21:23.774Z,1020.41
2016-12-30T00:22:23.784Z,1020.39
2016-12-30T00:23:23.796Z,1020.36
2016-12-30T00:24:23.806Z,1020.37
2016-12-30T00:25:23.819Z,1020.35
2016-12-30T00:26:23.825Z,1020.36
2016-12-30T00:27:23.840Z,1020.33
2016-12-30T00:28:23.852Z,1020.34
2016-12-30T00:29:23.861Z,1020.31
2016-12-30T00:30:23.876Z,1020.3
2016-12-30T00:31:23.885Z,1020.3
2016-12-30T00:32:23.900Z,1020.32
2016-12-30T00:33:23.910Z,1020.34
2016-12-30T00:34:23.918Z,1020.35
2016-12-30T00:35:23.930Z,1020.31
2016-12-30T00:36:23.944Z,1020.31
2016-12-30T00:37:23.959Z,1020.32
2016-12-30T00:38:23.975Z,1020.33
2016-12-30T00:39:23.979Z,1020.3
2016-12-30T00:40:24.000Z,1020.33
2016-12-30T00:41:24.004Z,1020.33
2016-12-30T00:42:24.015Z,1020.35
2016-12-30T00:43:24.025Z,1020.32
2016-12-30T00:44:24.038Z,1020.34
2016-12-30T00:45:24.045Z,1020.31
2016-12-30T00:46:24.058Z,1020.32
2016-12-30T00:47:24.073Z,1020.36
2016-12-30T00:48:24.079Z,1020.36
2016-12-30T00:49:24.096Z,1020.35
2016-12-30T00:50:24.108Z,1020.32
2016-12-30T00:51:24.119Z,1020.35
2016-12-30T00:52:24.130Z,1020.34
2016-12-30T00:53:24.143Z,1020.39
2016-12-30T00:54:24.159Z,1020.39
2016-12-30T00:55:24.165Z,1020.4
2016-12-30T00:56:24.177Z,1020.4
2016-12-30T00:57:24.187Z,1020.43
2016-12-30T00:58:24.197Z,1020.48
2016-12-30T00:59:24.211Z,1020.49
2016-12-30T01:00:24.222Z,1020.48
2016-12-30T01:01:24.232Z,1020.46
2016-12-30T01:02:24.241Z,1020.47
2016-12-30T01:03:24.259Z,1020.45
2016-12-30T01:04:24.271Z,1020.49
2016-12-30T01:05:24.276Z,1020.46
2016-12-30T01:06:24.287Z,1020.51
2016-12-30T01:07:24.302Z,1020.49
2016-12-30T01:08:24.312Z,1020.51
2016-12-30T01:09:24.327Z,1020.52
2016-12-30T01:10:24.332Z,1020.51
2016-12-30T01:11:24.347Z,1020.54
2016-12-30T01:12:24.367Z,1020.57
2016-12-30T01:13:24.371Z,1020.52
2016-12-30T01:14:24.384Z,1020.6
2016-12-30T01:15:24.394Z,1020.56
2016-12-30T01:16:24.415Z,1020.55
2016-12-30T01:17:24.414Z,1020.57
2016-12-30T01:18:24.429Z,1020.56
2016-12-30T01:19:24.437Z,1020.58
2016-12-30T01:20:24.447Z,1020.58
2016-12-30T01:21:24.464Z,1020.55
2016-12-30T01:22:24.476Z,1020.54
2016-12-30T01:23:24.483Z,1020.58
2016-12-30T01:24:24.491Z,1020.52
2016-12-30T01:25:24.504Z,1020.57
2016-12-30T01:26:24.516Z,1020.54
2016-12-30T01:27:24.528Z,1020.56
2016-12-30T01:28:24.539Z,1020.56
2016-12-30T01:29:24.551Z,1020.5
2016-12-30T01:30:24.560Z,1020.53
2016-12-30T01:31:24.574Z,1020.54
2016-12-30T01:32:24.587Z,1020.58
2016-12-30T01:33:24.599Z,1020.55
2016-12-30T01:34:24.619Z,1020.56
2016-12-30T01:35:24.621Z,1020.55
2016-12-30T01:36:24.634Z,1020.53
2016-12-30T01:37:24.641Z,1020.57
2016-12-30T01:38:24.662Z,1020.53
2016-12-30T01:39:24.664Z,1020.53
2016-12-30T01:40:24.676Z,1020.53
2016-12-30T01:41:24.687Z,1020.51
2016-12-30T01:42:24.697Z,1020.51
2016-12-30T01:43:24.714Z,1020.53
2016-12-30T01:44:24.719Z,1020.55
2016-12-30T01:45:24.734Z,1020.53
2016-12-30T01:46:24.742Z,1020.51
2016-12-30T01:47:24.757Z,1020.49
2016-12-30T01:48:24.766Z,1020.51
2016-12-30T01:49:24.776Z,1020.49
2016-12-30T01:50:24.790Z,1020.46
2016-12-30T01:51:24.801Z,1020.46
2016-12-30T01:52:24.815Z,1020.45
2016-12-30T01:53:24.825Z,1020.43
2016-12-30T01:54:24.833Z,1020.47
2016-12-30T01:55:24.847Z,1020.42
2016-12-30T01:56:24.855Z,1020.4
2016-12-30T01:57:24.868Z,1020.36
2016-12-30T01:58:24.887Z,1020.4
2016-12-30T01:59:24.892Z,1020.38
2016-12-30T02:00:24.915Z,1020.43
2016-12-30T02:01:24.911Z,1020.42
2016-12-30T02:02:24.926Z,1020.42
2016-12-30T02:03:24.935Z,1020.39
2016-12-30T02:04:24.947Z,1020.39
2016-12-30T02:05:24.961Z,1020.38
2016-12-30T02:06:24.972Z,1020.4
2016-12-30T02:07:24.983Z,1020.34
2016-12-30T02:08:24.994Z,1020.32
2016-12-30T02:09:25.007Z,1020.34
2016-12-30T02:10:25.017Z,1020.33
2016-12-30T02:11:25.029Z,1020.33
2016-12-30T02:12:25.039Z,1020.37
2016-12-30T02:13:25.051Z,1020.32
2016-12-30T02:14:25.060Z,1020.3
2016-12-30T02:15:25.069Z,1020.32
2016-12-30T02:16:25.083Z,1020.34
2016-12-30T02:17:25.095Z,1020.32
2016-12-30T02:18:25.104Z,1020.34
2016-12-30T02:19:25.117Z,1020.34
2016-12-30T02:20:25.129Z,1020.34
2016-12-30T02:21:25.139Z,1020.36
2016-12-30T02:22:25.155Z,1020.36
2016-12-30T02:23:25.166Z,1020.39
2016-12-30T02:24:25.173Z,1020.41
2016-12-30T02:25:25.183Z,1020.41
2016-12-30T02:26:25.197Z,1020.39
2016-12-30T02:27:25.208Z,1020.39
2016-12-30T02:28:25.218Z,1020.32
2016-12-30T02:29:25.231Z,1020.34
2016-12-30T02:30:25.240Z,1020.34
2016-12-30T02:31:25.254Z,1020.33
2016-12-30T02:32:25.266Z,1020.37
2016-12-30T02:33:25.274Z,1020.41
2016-12-30T02:34:25.291Z,1020.42
2016-12-30T02:35:25.297Z,1020.42
2016-12-30T02:36:25.315Z,1020.38
2016-12-30T02:37:25.322Z,1020.41
2016-12-30T02:38:25.334Z,1020.38
2016-12-30T02:39:25.345Z,1020.37
2016-12-30T02:40:25.354Z,1020.34
2016-12-30T02:41:25.366Z,1020.43
2016-12-30T02:42:25.376Z,1020.46
2016-12-30T02:43:25.392Z,1020.41
2016-12-30T02:44:25.404Z,1020.4
2016-12-30T02:45:25.413Z,1020.44
2016-12-30T02:46:25.420Z,1020.41
2016-12-30T02:47:25.432Z,1020.44
2016-12-30T02:48:25.441Z,1020.43
2016-12-30T02:49:25.457Z,1020.39
2016-12-30T02:50:25.467Z,1020.39
2016-12-30T02:51:25.477Z,1020.44
2016-12-30T02:52:25.489Z,1020.39
2016-12-30T02:53:25.501Z,1020.42
2016-12-30T02:54:25.514Z,1020.39
2016-12-30T02:55:25.524Z,1020.4
2016-12-30T02:56:25.533Z,1020.41
2016-12-30T02:57:25.546Z,1020.43
2016-12-30T02:58:25.558Z,1020.44
2016-12-30T02:59:25.569Z,1020.45
2016-12-30T03:00:25.577Z,1020.42
2016-12-30T03:01:25.593Z,1020.46
2016-12-30T03:02:25.598Z,1020.43
2016-12-30T03:03:25.615Z,1020.46
2016-12-30T03:04:25.625Z,1020.43
2016-12-30T03:05:25.633Z,1020.46
2016-12-30T03:06:25.647Z,1020.46
2016-12-30T03:07:25.656Z,1020.46
2016-12-30T03:08:25.668Z,1020.45
2016-12-30T03:09:25.680Z,1020.46
2016-12-30T03:10:25.691Z,1020.47
2016-12-30T03:11:25.702Z,1020.47
2016-12-30T03:12:25.713Z,1020.49
2016-12-30T03:13:25.725Z,1020.5
2016-12-30T03:14:25.734Z,1020.49
2016-12-30T03:15:25.751Z,1020.51
2016-12-30T03:16:25.756Z,1020.51
2016-12-30T03:17:25.769Z,1020.5
2016-12-30T03:18:25.780Z,1020.49
2016-12-30T03:19:25.792Z,1020.44
2016-12-30T03:20:25.800Z,1020.43
2016-12-30T03:21:25.817Z,1020.39
2016-12-30T03:22:25.826Z,1020.4
2016-12-30T03:23:25.837Z,1020.38
2016-12-30T03:24:25.851Z,1020.34
2016-12-30T03:25:25.862Z,1020.35
2016-12-30T03:26:25.874Z,1020.36
2016-12-30T03:27:25.883Z,1020.32
2016-12-30T03:28:25.892Z,1020.29
2016-12-30T03:29:25.905Z,1020.27
2016-12-30T03:30:25.913Z,1020.24
2016-12-30T03:31:25.927Z,1020.23
2016-12-30T03:32:25.939Z,1020.19
2016-12-30T03:33:25.949Z,1020.21
2016-12-30T03:34:25.961Z,1020.17
2016-12-30T03:35:25.971Z,1020.18
2016-12-30T03:36:25.983Z,1020.2
2016-12-30T03:37:25.991Z,1020.2
2016-12-30T03:38:26.005Z,1020.14
2016-12-30T03:39:26.017Z,1020.14
2016-12-30T03:40:26.025Z,1020.17
2016-12-30T03:41:26.036Z,1020.14
2016-12-30T03:42:26.050Z,1020.17
2016-12-30T03:43:26.058Z,1020.18
2016-12-30T03:44:26.068Z,1020.2
2016-12-30T03:45:26.078Z,1020.18
2016-12-30T03:46:26.091Z,1020.2
2016-12-30T03:47:26.103Z,1020.21
2016-12-30T03:48:26.113Z,1020.21
2016-12-30T03:49:26.123Z,1020.2
2016-12-30T03:50:26.135Z,1020.22
2016-12-30T03:51:26.147Z,1020.23
2016-12-30T03:52:26.158Z,1020.18
2016-12-30T03:53:26.166Z,1020.24
2016-12-30T03:54:26.178Z,1020.18
2016-12-30T03:55:26.190Z,1020.18
2016-12-30T03:56:26.203Z,1020.19
2016-12-30T03:57:26.213Z,1020.21
2016-12-30T03:58:26.227Z,1020.22
2016-12-30T03:59:26.235Z,1020.26
2016-12-30T04:01:26.256Z,1020.13
2016-12-30T04:02:26.272Z,1020.18
2016-12-30T04:03:26.281Z,1020.19
2016-12-30T04:04:26.292Z,1020.2
2016-12-30T04:05:26.303Z,1020.16
2016-12-30T04:06:26.312Z,1020.19
2016-12-30T04:07:26.325Z,1020.19
2016-12-30T04:08:26.334Z,1020.16
2016-12-30T04:09:26.347Z,1020.16
2016-12-30T04:10:26.358Z,1020.13
2016-12-30T04:11:26.366Z,1020.13
2016-12-30T04:12:26.379Z,1020.17
2016-12-30T04:13:26.387Z,1020.17
2016-12-30T04:14:26.401Z,1020.14
2016-12-30T04:15:26.415Z,1020.16
2016-12-30T04:16:26.422Z,1020.13
2016-12-30T04:17:26.433Z,1020.15
2016-12-30T04:18:26.446Z,1020.15
2016-12-30T04:19:26.458Z,1020.16
2016-12-30T04:20:26.467Z,1020.09
2016-12-30T04:21:26.480Z,1020.04
2016-12-30T04:22:26.489Z,1020.03
2016-12-30T04:23:26.499Z,1019.97
2016-12-30T04:24:26.511Z,1020
2016-12-30T04:25:26.520Z,1020.03
2016-12-30T04:26:26.536Z,1020.06
2016-12-30T04:27:26.542Z,1020.09
2016-12-30T04:28:26.555Z,1020.12
2016-12-30T04:29:26.568Z,1020.11
2016-12-30T04:30:26.574Z,1020.08
2016-12-30T04:31:26.591Z,1020.12
2016-12-30T04:32:26.599Z,1020.08
2016-12-30T04:33:26.609Z,1020.11
2016-12-30T04:34:26.619Z,1020.06
2016-12-30T04:35:26.634Z,1020.1
2016-12-30T04:36:26.641Z,1020.07
2016-12-30T04:37:26.656Z,1020.1
2016-12-30T04:38:26.665Z,1020.08
2016-12-30T04:39:26.678Z,1020.1
2016-12-30T04:40:26.684Z,1020.09
2016-12-30T04:41:26.699Z,1020.1
2016-12-30T04:42:26.709Z,1020.08
2016-12-30T04:44:26.728Z,1020.09
2016-12-30T04:45:26.743Z,1020.09
2016-12-30T04:46:26.752Z,1020.1
2016-12-30T04:47:26.763Z,1020.08
2016-12-30T04:48:26.772Z,1020.07
2016-12-30T04:49:26.784Z,1020.12
2016-12-30T04:50:26.795Z,1020.14
2016-12-30T04:51:26.808Z,1020.12
2016-12-30T04:52:26.820Z,1020.13
2016-12-30T04:53:26.829Z,1020.16
2016-12-30T04:54:26.840Z,1020.14
2016-12-30T04:55:26.853Z,1020.14
2016-12-30T04:56:26.860Z,1020.14
2016-12-30T04:57:26.870Z,1020.09
2016-12-30T04:58:26.885Z,1020.07
2016-12-30T04:59:26.895Z,1020.13
2016-12-30T05:00:26.905Z,1020.1
2016-12-30T05:01:26.914Z,1020.07
2016-12-30T05:02:26.927Z,1020.08
2016-12-30T05:03:26.941Z,1020.1
2016-12-30T05:04:26.950Z,1020.11
2016-12-30T05:05:26.958Z,1020.11
2016-12-30T05:06:26.973Z,1020.13
2016-12-30T05:07:26.983Z,1020.15
2016-12-30T05:08:26.996Z,1020.14
2016-12-30T05:09:27.006Z,1020.15
2016-12-30T05:10:27.018Z,1020.17
2016-12-30T05:11:27.025Z,1020.22
2016-12-30T05:12:27.040Z,1020.24
2016-12-30T05:13:27.047Z,1020.27
2016-12-30T05:14:27.060Z,1020.27
2016-12-30T05:15:27.070Z,1020.19
2016-12-30T05:16:27.084Z,1020.21
2016-12-30T05:17:27.092Z,1020.18
2016-12-30T05:18:27.100Z,1020.19
2016-12-30T05:19:27.116Z,1020.19
2016-12-30T05:20:27.125Z,1020.14
2016-12-30T05:21:27.135Z,1020.14
2016-12-30T05:22:27.152Z,1020.14
2016-12-30T05:23:27.159Z,1020.11
2016-12-30T05:24:27.169Z,1020.13
2016-12-30T05:25:27.179Z,1020.15
2016-12-30T05:26:27.187Z,1020.13
2016-12-30T05:27:27.201Z,1020.17
2016-12-30T05:28:27.212Z,1020.18
2016-12-30T05:29:27.226Z,1020.19
2016-12-30T05:30:27.240Z,1020.17
2016-12-30T05:31:27.245Z,1020.25
2016-12-30T05:32:27.257Z,1020.18
2016-12-30T05:33:27.267Z,1020.18
2016-12-30T05:34:27.278Z,1020.2
2016-12-30T05:35:27.290Z,1020.23
2016-12-30T05:36:27.301Z,1020.22
2016-12-30T05:37:27.314Z,1020.26
2016-12-30T05:38:27.320Z,1020.29
2016-12-30T05:39:27.332Z,1020.21
2016-12-30T05:40:27.345Z,1020.27
2016-12-30T05:41:27.357Z,1020.23
2016-12-30T05:42:27.363Z,1020.25
2016-12-30T05:43:27.380Z,1020.27
2016-12-30T05:44:27.389Z,1020.29
2016-12-30T05:45:27.397Z,1020.26
2016-12-30T05:46:27.412Z,1020.23
2016-12-30T05:47:27.420Z,1020.23
2016-12-30T05:48:27.431Z,1020.23
2016-12-30T05:49:27.442Z,1020.22
2016-12-30T05:50:27.453Z,1020.22
2016-12-30T05:51:27.464Z,1020.22
2016-12-30T05:52:27.478Z,1020.19
2016-12-30T05:53:27.486Z,1020.16
2016-12-30T05:54:27.499Z,1020.1
2016-12-30T05:55:27.508Z,1020.15
2016-12-30T05:56:27.521Z,1020.13
2016-12-30T05:57:27.531Z,1020.13
2016-12-30T05:58:27.542Z,1020.1
2016-12-30T05:59:27.549Z,1020.08
2016-12-30T06:00:27.559Z,1020.09
2016-12-30T06:01:27.572Z,1020.09
2016-12-30T06:02:27.585Z,1020.1
2016-12-30T06:03:27.597Z,1020.1
2016-12-30T06:04:27.603Z,1020.05
2016-12-30T06:05:27.618Z,1020.06
2016-12-30T06:06:27.629Z,1020.04
2016-12-30T06:07:27.639Z,1020.02
2016-12-30T06:08:27.647Z,1020.03
2016-12-30T06:09:27.661Z,1020.04
2016-12-30T06:10:27.672Z,1020
2016-12-30T06:11:27.680Z,1020.07
2016-12-30T06:12:27.694Z,1019.99
2016-12-30T06:13:27.703Z,1020.03
2016-12-30T06:14:27.713Z,1020.01
2016-12-30T06:15:27.724Z,1020.02
2016-12-30T06:16:27.738Z,1020.03
2016-12-30T06:17:27.748Z,1020.02
2016-12-30T06:18:27.760Z,1020.1
2016-12-30T06:19:27.769Z,1020.07
2016-12-30T06:20:27.775Z,1020.03
2016-12-30T06:21:27.790Z,1020.08
2016-12-30T06:22:27.804Z,1020.04
2016-12-30T06:23:27.810Z,1020.07
2016-12-30T06:24:27.823Z,1020.08
2016-12-30T06:25:27.836Z,1020.09
2016-12-30T06:26:27.844Z,1020.13
2016-12-30T06:27:27.857Z,1020.11
2016-12-30T06:28:27.866Z,1020.08
2016-12-30T06:29:27.879Z,1020.13
2016-12-30T06:30:27.886Z,1020.11
2016-12-30T06:31:27.897Z,1020.15
2016-12-30T06:32:27.912Z,1020.15
2016-12-30T06:33:27.923Z,1020.2
2016-12-30T06:34:27.933Z,1020.17
2016-12-30T06:35:27.941Z,1020.17
2016-12-30T06:36:27.951Z,1020.17
2016-12-30T06:37:27.961Z,1020.18
2016-12-30T06:38:27.974Z,1020.15
2016-12-30T06:39:27.983Z,1020.13
2016-12-30T06:40:27.999Z,1020.12
2016-12-30T06:41:28.008Z,1020.08
2016-12-30T06:42:28.014Z,1020.09
2016-12-30T06:43:28.029Z,1020.1
2016-12-30T06:44:28.040Z,1020.11
2016-12-30T06:45:28.048Z,1020.12
2016-12-30T06:46:28.059Z,1020.13
2016-12-30T06:47:28.073Z,1020.1
2016-12-30T06:48:28.080Z,1020.15
2016-12-30T06:49:28.097Z,1020.11
2016-12-30T06:50:28.103Z,1020.08
2016-12-30T06:51:28.116Z,1020.11
2016-12-30T06:52:28.129Z,1020.1
2016-12-30T06:53:28.135Z,1020.09
2016-12-30T06:54:28.146Z,1020.13
2016-12-30T06:55:28.158Z,1020.11
2016-12-30T06:56:28.170Z,1020.09
2016-12-30T06:57:28.178Z,1020.1
2016-12-30T06:58:28.193Z,1020.07
2016-12-30T06:59:28.202Z,1020.07
2016-12-30T07:00:28.213Z,1020.11
2016-12-30T07:01:28.222Z,1020.09
2016-12-30T07:02:28.234Z,1020.07
2016-12-30T07:03:28.247Z,1020.09
2016-12-30T07:04:28.254Z,1020.1
2016-12-30T07:05:28.266Z,1020.13
2016-12-30T07:06:28.277Z,1020.18
2016-12-30T07:07:28.291Z,1020.15
2016-12-30T07:08:28.297Z,1020.22
2016-12-30T07:09:28.314Z,1020.22
2016-12-30T07:10:28.318Z,1020.17
2016-12-30T07:11:28.337Z,1020.11
2016-12-30T07:12:28.340Z,1020.17
2016-12-30T07:13:28.354Z,1020.13
2016-12-30T07:14:28.363Z,1020.15
2016-12-30T07:15:28.376Z,1020.14
2016-12-30T07:16:28.388Z,1020.16
2016-12-30T07:17:28.399Z,1020.16
2016-12-30T07:18:28.406Z,1020.17
2016-12-30T07:19:28.419Z,1020.19
2016-12-30T07:20:28.429Z,1020.2
2016-12-30T07:21:28.444Z,1020.2
2016-12-30T07:22:28.453Z,1020.21
2016-12-30T07:23:28.464Z,1020.21
2016-12-30T07:24:28.476Z,1020.18
2016-12-30T07:25:28.485Z,1020.21
2016-12-30T07:26:28.494Z,1020.25
2016-12-30T07:27:28.503Z,1020.22
2016-12-30T07:28:28.518Z,1020.25
2016-12-30T07:29:28.526Z,1020.26
2016-12-30T07:30:28.535Z,1020.27
2016-12-30T07:31:28.552Z,1020.27
2016-12-30T07:32:28.560Z,1020.29
2016-12-30T07:33:28.573Z,1020.31
2016-12-30T07:34:28.578Z,1020.36
2016-12-30T07:35:28.593Z,1020.37
2016-12-30T07:36:28.605Z,1020.38
2016-12-30T07:37:28.613Z,1020.36
2016-12-30T07:38:28.623Z,1020.38
2016-12-30T07:39:28.640Z,1020.36
2016-12-30T07:40:28.645Z,1020.42
2016-12-30T07:41:28.655Z,1020.47
2016-12-30T07:42:28.671Z,1020.53
2016-12-30T07:43:28.679Z,1020.52
2016-12-30T07:44:28.689Z,1020.54
2016-12-30T07:45:28.699Z,1020.52
2016-12-30T07:46:28.715Z,1020.56
2016-12-30T07:47:28.725Z,1020.56
2016-12-30T07:48:28.734Z,1020.53
2016-12-30T07:49:28.745Z,1020.58
2016-12-30T07:50:28.757Z,1020.56
2016-12-30T07:51:28.765Z,1020.59
2016-12-30T07:52:28.777Z,1020.58
2016-12-30T07:53:28.787Z,1020.58
2016-12-30T07:54:28.803Z,1020.6
2016-12-30T07:55:28.809Z,1020.6
2016-12-30T07:56:28.822Z,1020.56
2016-12-30T07:57:28.834Z,1020.56
2016-12-30T07:58:28.847Z,1020.59
2016-12-30T07:59:28.856Z,1020.57
2016-12-30T08:00:28.868Z,1020.57
2016-12-30T08:01:28.874Z,1020.59
2016-12-30T08:02:28.890Z,1020.56
2016-12-30T08:03:28.898Z,1020.54
2016-12-30T08:04:28.908Z,1020.54
2016-12-30T08:05:28.919Z,1020.54
2016-12-30T08:06:28.927Z,1020.55
2016-12-30T08:07:28.943Z,1020.57
2016-12-30T08:08:28.952Z,1020.6
2016-12-30T08:09:28.968Z,1020.59
2016-12-30T08:10:28.972Z,1020.58
2016-12-30T08:11:28.986Z,1020.6
2016-12-30T08:12:28.997Z,1020.6
2016-12-30T08:13:29.006Z,1020.61
2016-12-30T08:14:29.019Z,1020.58
2016-12-30T08:15:29.031Z,1020.63
2016-12-30T08:16:29.040Z,1020.65
2016-12-30T08:17:29.047Z,1020.69
2016-12-30T08:18:29.059Z,1020.74
2016-12-30T08:19:29.073Z,1020.7
2016-12-30T08:20:29.082Z,1020.73
2016-12-30T08:21:29.093Z,1020.69
2016-12-30T08:22:29.104Z,1020.71
2016-12-30T08:23:29.113Z,1020.75
2016-12-30T08:24:29.125Z,1020.8
2016-12-30T08:25:29.136Z,1020.72
2016-12-30T08:26:29.148Z,1020.73
2016-12-30T08:27:29.160Z,1020.72
2016-12-30T08:28:29.170Z,1020.71
2016-12-30T08:29:29.178Z,1020.69
2016-12-30T08:30:29.192Z,1020.7
2016-12-30T08:31:29.204Z,1020.69
2016-12-30T08:32:29.214Z,1020.69
2016-12-30T08:33:29.226Z,1020.69
2016-12-30T08:34:29.236Z,1020.66
2016-12-30T08:35:29.250Z,1020.7
2016-12-30T08:36:29.261Z,1020.7
2016-12-30T08:37:29.270Z,1020.63
2016-12-30T08:38:29.281Z,1020.63
2016-12-30T08:39:29.294Z,1020.67
2016-12-30T08:40:29.305Z,1020.68
2016-12-30T08:41:29.314Z,1020.7
2016-12-30T08:42:29.327Z,1020.7
2016-12-30T08:43:29.340Z,1020.67
2016-12-30T08:44:29.350Z,1020.65
2016-12-30T08:45:29.361Z,1020.67
2016-12-30T08:46:29.376Z,1020.67
2016-12-30T08:47:29.391Z,1020.67
2016-12-30T08:48:29.394Z,1020.65
2016-12-30T08:49:29.410Z,1020.63
2016-12-30T08:50:29.419Z,1020.7
2016-12-30T08:51:29.428Z,1020.65
2016-12-30T08:52:29.443Z,1020.66
2016-12-30T08:53:29.452Z,1020.66
2016-12-30T08:54:29.462Z,1020.63
2016-12-30T08:55:29.476Z,1020.65
2016-12-30T08:56:29.488Z,1020.59
2016-12-30T08:57:29.502Z,1020.58
2016-12-30T08:58:29.508Z,1020.6
2016-12-30T08:59:29.522Z,1020.59
2016-12-30T09:00:29.534Z,1020.56
2016-12-30T09:01:29.542Z,1020.59
2016-12-30T09:02:29.559Z,1020.5
2016-12-30T09:03:29.568Z,1020.55
2016-12-30T09:04:29.580Z,1020.57
2016-12-30T09:05:29.592Z,1020.62
2016-12-30T09:06:29.605Z,1020.61
2016-12-30T09:07:29.614Z,1020.64
2016-12-30T09:08:29.629Z,1020.66
2016-12-30T09:09:29.639Z,1020.66
2016-12-30T09:10:29.650Z,1020.67
2016-12-30T09:11:29.665Z,1020.71
2016-12-30T09:12:29.676Z,1020.76
2016-12-30T09:13:29.687Z,1020.76
2016-12-30T09:14:29.699Z,1020.75
2016-12-30T09:15:29.711Z,1020.74
2016-12-30T09:16:29.725Z,1020.7
2016-12-30T09:17:29.738Z,1020.71
2016-12-30T09:18:29.750Z,1020.69
2016-12-30T09:19:29.762Z,1020.69
2016-12-30T09:20:29.789Z,1020.7
2016-12-30T09:21:29.789Z,1020.72
2016-12-30T09:22:29.796Z,1020.75
2016-12-30T09:23:29.811Z,1020.77
2016-12-30T09:24:29.822Z,1020.75
2016-12-30T09:25:29.837Z,1020.77
2016-12-30T09:26:29.849Z,1020.74
2016-12-30T09:27:29.856Z,1020.78
2016-12-30T09:28:29.872Z,1020.72
2016-12-30T09:29:29.885Z,1020.7
2016-12-30T09:30:29.898Z,1020.66
2016-12-30T09:31:29.909Z,1020.67
2016-12-30T09:32:29.926Z,1020.66
2016-12-30T09:33:29.938Z,1020.58
2016-12-30T09:34:29.943Z,1020.58
2016-12-30T09:35:29.959Z,1020.56
2016-12-30T09:36:29.974Z,1020.57
2016-12-30T09:37:29.985Z,1020.6
2016-12-30T09:38:29.995Z,1020.58
2016-12-30T09:39:30.009Z,1020.53
2016-12-30T09:40:30.023Z,1020.59
2016-12-30T09:41:30.035Z,1020.54
2016-12-30T09:42:30.047Z,1020.56
2016-12-30T09:43:30.063Z,1020.54
2016-12-30T09:44:30.075Z,1020.5
2016-12-30T09:45:30.090Z,1020.49
2016-12-30T09:46:30.100Z,1020.49
2016-12-30T09:47:30.115Z,1020.48
2016-12-30T09:48:30.126Z,1020.43
2016-12-30T09:49:30.138Z,1020.47
2016-12-30T09:50:30.151Z,1020.51
2016-12-30T09:51:30.163Z,1020.48
2016-12-30T09:52:30.181Z,1020.51
2016-12-30T09:53:30.193Z,1020.48
2016-12-30T09:54:30.206Z,1020.51
2016-12-30T09:55:30.216Z,1020.47
2016-12-30T09:56:30.228Z,1020.48
2016-12-30T09:57:30.241Z,1020.48
2016-12-30T09:58:30.256Z,1020.45
2016-12-30T09:59:30.271Z,1020.43
2016-12-30T10:00:30.282Z,1020.4
2016-12-30T10:01:30.293Z,1020.4
2016-12-30T10:02:30.309Z,1020.39
2016-12-30T10:03:30.361Z,1020.39
2016-12-30T10:04:30.335Z,1020.4
2016-12-30T10:05:30.349Z,1020.35
2016-12-30T10:06:30.360Z,1020.35
2016-12-30T10:07:30.373Z,1020.37
2016-12-30T10:08:30.389Z,1020.35
2016-12-30T10:09:30.400Z,1020.36
2016-12-30T10:10:30.415Z,1020.3
2016-12-30T10:11:30.425Z,1020.3
2016-12-30T10:12:30.437Z,1020.29
2016-12-30T10:13:30.451Z,1020.23
2016-12-30T10:14:30.462Z,1020.28
2016-12-30T10:15:30.479Z,1020.25
2016-12-30T10:16:30.518Z,1020.25
2016-12-30T10:17:30.505Z,1020.25
2016-12-30T10:18:30.521Z,1020.2
2016-12-30T10:19:30.531Z,1020.17
2016-12-30T10:20:30.544Z,1020.21
2016-12-30T10:21:30.562Z,1020.2
2016-12-30T10:22:30.571Z,1020.2
2016-12-30T10:23:30.585Z,1020.23
2016-12-30T10:24:30.601Z,1020.25
2016-12-30T10:25:30.614Z,1020.24
2016-12-30T10:26:30.630Z,1020.26
2016-12-30T10:27:30.641Z,1020.22
2016-12-30T10:28:30.652Z,1020.21
2016-12-30T10:29:30.666Z,1020.22
2016-12-30T10:30:30.681Z,1020.14
2016-12-30T10:31:30.696Z,1020.12
2016-12-30T10:32:30.708Z,1020.06
2016-12-30T10:33:30.720Z,1020.08
2016-12-30T10:34:30.737Z,1020.06
2016-12-30T10:35:30.751Z,1020.06
2016-12-30T10:36:30.763Z,1020.05
2016-12-30T10:37:30.774Z,1020.06
2016-12-30T10:38:30.791Z,1020.08
2016-12-30T10:39:30.803Z,1020.04
2016-12-30T10:40:30.819Z,1020.05
2016-12-30T10:41:30.830Z,1020.04
2016-12-30T10:42:30.843Z,1020.06
2016-12-30T10:43:30.856Z,1020.05
2016-12-30T10:44:30.870Z,1020.05
2016-12-30T10:45:30.884Z,1020.04
2016-12-30T10:46:30.901Z,1020.06
2016-12-30T10:47:30.915Z,1020.09
2016-12-30T10:48:30.924Z,1020.14
2016-12-30T10:49:30.938Z,1020.15
2016-12-30T10:50:30.954Z,1020.17
2016-12-30T10:51:30.970Z,1020.17
2016-12-30T10:52:30.983Z,1020.16
2016-12-30T10:53:30.997Z,1020.15
2016-12-30T10:54:31.009Z,1020.15
2016-12-30T10:55:31.025Z,1020.13
2016-12-30T10:56:31.036Z,1020.15
2016-12-30T10:57:31.053Z,1020.12
2016-12-30T10:58:31.064Z,1020.06
2016-12-30T10:59:31.078Z,1020.08
2016-12-30T11:00:31.093Z,1020.05
2016-12-30T11:01:31.109Z,1020.04
2016-12-30T11:02:31.122Z,1020
2016-12-30T11:03:31.134Z,1020
2016-12-30T11:04:31.147Z,1020.01
2016-12-30T11:05:31.165Z,1019.97
2016-12-30T11:06:31.176Z,1019.95
2016-12-30T11:07:31.191Z,1019.95
2016-12-30T11:08:31.206Z,1019.93
2016-12-30T11:09:31.217Z,1019.91
2016-12-30T11:10:31.231Z,1019.92
2016-12-30T11:11:31.243Z,1019.89
2016-12-30T11:12:31.258Z,1019.85
2016-12-30T11:13:31.271Z,1019.84
2016-12-30T11:14:31.289Z,1019.82
2016-12-30T11:15:31.298Z,1019.75
2016-12-30T11:16:31.315Z,1019.74
2016-12-30T11:17:31.325Z,1019.78
2016-12-30T11:18:31.340Z,1019.78
2016-12-30T11:19:31.356Z,1019.75
2016-12-30T11:20:31.370Z,1019.75
2016-12-30T11:21:31.386Z,1019.7
2016-12-30T11:22:31.397Z,1019.71
2016-12-30T11:23:31.412Z,1019.67
2016-12-30T11:24:31.424Z,1019.62
2016-12-30T11:25:31.461Z,1019.64
2016-12-30T11:26:31.453Z,1019.58
2016-12-30T11:27:31.468Z,1019.58
2016-12-30T11:28:31.481Z,1019.6
2016-12-30T11:29:31.490Z,1019.54
2016-12-30T11:30:31.506Z,1019.52
2016-12-30T11:31:31.524Z,1019.56
2016-12-30T11:32:31.537Z,1019.55
2016-12-30T11:33:31.552Z,1019.54
2016-12-30T11:34:31.567Z,1019.48
2016-12-30T11:35:31.579Z,1019.42
2016-12-30T11:36:31.589Z,1019.45
2016-12-30T11:37:31.606Z,1019.44
2016-12-30T11:38:31.621Z,1019.4
2016-12-30T11:39:31.634Z,1019.44
2016-12-30T11:40:31.648Z,1019.42
2016-12-30T11:41:31.662Z,1019.42
2016-12-30T11:42:31.678Z,1019.45
2016-12-30T11:43:31.691Z,1019.44
2016-12-30T11:44:31.709Z,1019.39
2016-12-30T11:45:31.719Z,1019.39
2016-12-30T11:46:31.731Z,1019.39
2016-12-30T11:47:31.748Z,1019.35
2016-12-30T11:48:31.759Z,1019.35
2016-12-30T11:49:31.777Z,1019.35
2016-12-30T11:50:31.790Z,1019.32
2016-12-30T11:51:31.804Z,1019.33
2016-12-30T11:52:31.819Z,1019.31
2016-12-30T11:53:31.832Z,1019.31
2016-12-30T11:54:31.845Z,1019.34
2016-12-30T11:55:31.861Z,1019.34
2016-12-30T11:56:31.874Z,1019.38
2016-12-30T11:57:31.887Z,1019.41
2016-12-30T11:58:31.903Z,1019.41
2016-12-30T11:59:31.918Z,1019.36
2016-12-30T12:00:31.931Z,1019.37
2016-12-30T12:01:31.943Z,1019.37
2016-12-30T12:02:31.960Z,1019.39
2016-12-30T12:03:31.973Z,1019.4
2016-12-30T12:04:31.989Z,1019.43
2016-12-30T12:05:32.002Z,1019.4
2016-12-30T12:06:32.019Z,1019.43
2016-12-30T12:07:32.032Z,1019.41
2016-12-30T12:08:32.045Z,1019.39
2016-12-30T12:09:32.058Z,1019.42
2016-12-30T12:10:32.073Z,1019.41